createdAt,value
2019-05-05T00:00:37.926Z,94936.3
2019-05-05T00:01:40.341Z,94939.1
2019-05-05T00:02:44.660Z,94937.5
2019-05-05T00:03:49.557Z,94938.8
2019-05-05T00:04:51.736Z,94943.7
2019-05-05T00:05:56.425Z,94944.8
2019-05-05T00:06:58.285Z,94945.1
2019-05-05T00:08:00.429Z,94946.3
2019-05-05T00:09:02.588Z,94948.1
2019-05-05T00:10:09.209Z,94949.2
2019-05-05T00:11:12.231Z,94952.9
2019-05-05T00:12:16.185Z,94951.5
2019-05-05T00:13:18.361Z,94953.8
2019-05-05T00:14:20.775Z,94953.4
2019-05-05T00:15:24.952Z,94955.9
2019-05-05T00:16:27.230Z,94959.4
2019-05-05T00:17:30.189Z,94955.1
2019-05-05T00:18:34.464Z,94955.5
2019-05-05T00:19:37.370Z,94953.2
2019-05-05T00:20:40.129Z,94953.9
2019-05-05T00:21:44.117Z,94951.3
2019-05-05T00:22:48.713Z,94952.9
2019-05-05T00:23:51.129Z,94951.5
2019-05-05T00:24:55.579Z,94951.1
2019-05-05T00:25:57.465Z,94955.2
2019-05-05T00:26:59.889Z,94956.3
2019-05-05T00:28:02.029Z,94955.8
2019-05-05T00:29:05.881Z,94958.1
2019-05-05T00:30:08.281Z,94966.6
2019-05-05T00:31:10.697Z,94963.8
2019-05-05T00:32:15.248Z,94962.2
2019-05-05T00:33:17.573Z,94966
2019-05-05T00:34:20.005Z,94964.6
2019-05-05T00:35:22.719Z,94970.4
2019-05-05T00:36:27.191Z,94971.5
2019-05-05T00:37:29.613Z,94976.2
2019-05-05T00:38:32.033Z,94974.7
2019-05-05T00:39:36.353Z,94975.6
2019-05-05T00:40:38.785Z,94972.4
2019-05-05T00:41:41.216Z,94976.9
2019-05-05T00:42:45.419Z,94970.9
2019-05-05T00:43:48.010Z,94977.1
2019-05-05T00:44:50.601Z,94973.8
2019-05-05T00:45:52.761Z,94976
2019-05-05T00:46:56.246Z,94974.5
2019-05-05T00:47:58.667Z,94974.3
2019-05-05T00:49:01.091Z,94972.5
2019-05-05T00:50:05.755Z,94974.7
2019-05-05T00:51:07.627Z,94975.9
2019-05-05T00:52:10.054Z,94973
2019-05-05T00:54:18.645Z,94974.3
2019-05-05T00:55:20.790Z,94970.9
2019-05-05T00:56:24.815Z,94973.3
2019-05-05T00:57:27.475Z,94973.2
2019-05-05T00:58:29.633Z,94968.4
2019-05-05T00:59:34.521Z,94971
2019-05-05T01:00:37.147Z,94977.9
2019-05-05T01:01:39.563Z,94974.3
2019-05-05T01:02:41.983Z,94974
2019-05-05T01:03:45.665Z,94977.4
2019-05-05T01:04:48.081Z,94980.7
2019-05-05T01:05:49.953Z,94982.8
2019-05-05T01:06:52.113Z,94983.5
2019-05-05T01:07:56.428Z,94987.1
2019-05-05T01:08:59.456Z,94983
2019-05-05T01:10:01.833Z,94984.9
2019-05-05T01:11:05.637Z,94990.2
2019-05-05T01:12:07.798Z,94990.2
2019-05-05T01:13:09.953Z,94996.5
2019-05-05T01:14:12.114Z,94997.7
2019-05-05T01:15:16.563Z,94995.4
2019-05-05T01:16:18.724Z,94995.9
2019-05-05T01:17:20.876Z,94994.6
2019-05-05T01:18:25.501Z,94996.3
2019-05-05T01:19:27.637Z,95002.8
2019-05-05T01:20:29.493Z,95002.7
2019-05-05T01:21:31.358Z,95000.1
2019-05-05T01:22:35.670Z,95004.5
2019-05-05T01:23:38.093Z,95005
2019-05-05T01:24:39.965Z,95009.3
2019-05-05T01:25:42.382Z,95008.7
2019-05-05T01:26:46.111Z,95012.8
2019-05-05T01:27:49.433Z,95008.1
2019-05-05T01:28:51.313Z,95008.5
2019-05-05T01:29:56.005Z,95013.3
2019-05-05T01:30:57.873Z,95013.3
2019-05-05T01:31:59.761Z,95012.6
2019-05-05T01:33:02.468Z,95012.3
2019-05-05T01:34:06.333Z,95012.6
2019-05-05T01:35:08.483Z,95016.6
2019-05-05T01:36:10.907Z,95016.6
2019-05-05T01:37:14.990Z,95015.5
2019-05-05T01:38:17.562Z,95014.1
2019-05-05T01:39:20.899Z,95015.8
2019-05-05T01:40:24.273Z,95017.2
2019-05-05T01:41:27.674Z,95015.1
2019-05-05T01:42:30.111Z,95018.8
2019-05-05T01:43:32.245Z,95016.4
2019-05-05T01:44:36.767Z,95018.8
2019-05-05T01:45:38.645Z,95016.2
2019-05-05T01:46:40.543Z,95015.4
2019-05-05T01:47:45.069Z,95014.4
2019-05-05T01:48:47.673Z,95012.4
2019-05-05T01:49:49.515Z,95016.4
2019-05-05T01:50:54.348Z,95014.3
2019-05-05T01:51:58.379Z,95018.4
2019-05-05T01:53:00.984Z,95018.4
2019-05-05T01:54:04.942Z,95013.6
2019-05-05T01:55:09.281Z,95013
2019-05-05T01:56:11.690Z,95010.5
2019-05-05T01:57:16.155Z,95014.2
2019-05-05T01:58:18.316Z,95015.2
2019-05-05T01:59:20.748Z,95020
2019-05-05T02:00:25.290Z,95017.9
2019-05-05T02:01:28.642Z,95016.2
2019-05-05T02:02:30.763Z,95018.3
2019-05-05T02:04:39.053Z,95018.1
2019-05-05T02:05:42.061Z,95016.5
2019-05-05T02:06:46.669Z,95010.9
2019-05-05T02:07:49.069Z,95011.9
2019-05-05T02:08:54.709Z,95014
2019-05-05T02:09:57.298Z,95012.7
2019-05-05T02:10:59.446Z,95011.7
2019-05-05T02:12:01.498Z,95010.2
2019-05-05T02:13:06.173Z,95007.9
2019-05-05T02:14:08.315Z,95006.6
2019-05-05T02:15:10.815Z,95004.9
2019-05-05T02:16:14.865Z,95001.3
2019-05-05T02:17:20.688Z,95007.9
2019-05-05T02:18:27.761Z,95008.3
2019-05-05T02:19:29.895Z,95006.5
2019-05-05T02:20:34.725Z,95000
2019-05-05T02:21:36.651Z,95002.7
2019-05-05T02:22:38.995Z,95001.8
2019-05-05T02:23:42.029Z,95000
2019-05-05T02:24:45.694Z,94998.4
2019-05-05T02:25:47.859Z,94998.6
2019-05-05T02:26:50.011Z,94996.6
2019-05-05T02:27:52.169Z,95001.3
2019-05-05T02:28:56.701Z,95000.2
2019-05-05T02:29:58.867Z,94999
2019-05-05T02:31:01.303Z,94999.5
2019-05-05T02:33:08.710Z,95003.1
2019-05-05T02:34:11.698Z,94999
2019-05-05T02:36:19.103Z,95005.2
2019-05-05T02:37:21.714Z,95003.6
2019-05-05T02:39:29.330Z,95003.6
2019-05-05T02:40:31.198Z,95003.1
2019-05-05T02:42:39.266Z,95007.3
2019-05-05T02:43:41.419Z,95005.6
2019-05-05T02:45:48.562Z,95000.1
2019-05-05T02:46:50.978Z,95003.8
2019-05-05T02:48:57.838Z,95006.4
2019-05-05T02:50:00.004Z,95006.8
2019-05-05T02:52:09.626Z,95004.6
2019-05-05T02:53:14.749Z,95002.8
2019-05-05T02:54:17.172Z,95007
2019-05-05T02:55:19.593Z,95013.2
2019-05-05T02:56:23.554Z,95014
2019-05-05T02:57:25.901Z,95015.7
2019-05-05T02:58:28.530Z,95018.6
2019-05-05T02:59:31.337Z,95014.1
2019-05-05T03:00:35.847Z,95011.4
2019-05-05T03:01:38.271Z,95010
2019-05-05T03:02:40.691Z,95010.6
2019-05-05T03:03:47.582Z,95017.2
2019-05-05T03:04:50.005Z,95022.9
2019-05-05T03:05:54.329Z,95022.4
2019-05-05T03:06:56.489Z,95022.5
2019-05-05T03:07:58.913Z,95027
2019-05-05T03:09:01.925Z,95028.3
2019-05-05T03:10:06.352Z,95025.5
2019-05-05T03:11:08.930Z,95025.9
2019-05-05T03:12:14.874Z,95023.1
2019-05-05T03:13:16.855Z,95031.3
2019-05-05T03:14:19.219Z,95033.7
2019-05-05T03:15:24.961Z,95034.4
2019-05-05T03:16:27.372Z,95035
2019-05-05T03:17:30.414Z,95037.7
2019-05-05T03:18:34.765Z,95037.3
2019-05-05T03:19:37.210Z,95035.8
2019-05-05T03:20:39.971Z,95042.7
2019-05-05T03:21:43.961Z,95041.9
2019-05-05T03:22:46.581Z,95042.5
2019-05-05T03:23:48.734Z,95044.2
2019-05-05T03:24:50.595Z,95048.4
2019-05-05T03:25:55.086Z,95045
2019-05-05T03:26:58.117Z,95049
2019-05-05T03:28:00.549Z,95047.1
2019-05-05T03:29:05.244Z,95046.1
2019-05-05T03:30:07.417Z,95043.2
2019-05-05T03:31:10.438Z,95045.8
2019-05-05T03:33:18.458Z,95050.5
2019-05-05T03:34:21.064Z,95052
2019-05-05T03:35:27.697Z,95051.3
2019-05-05T03:36:30.114Z,95046
2019-05-05T03:37:36.484Z,95045.6
2019-05-05T03:38:38.899Z,95047.4
2019-05-05T03:39:41.325Z,95046.5
2019-05-05T03:40:45.098Z,95052.3
2019-05-05T03:41:46.966Z,95051.5
2019-05-05T03:42:49.116Z,95051.6
2019-05-05T03:43:51.534Z,95055.7
2019-05-05T03:44:58.429Z,95052.7
2019-05-05T03:46:00.856Z,95054.1
2019-05-05T03:47:05.057Z,95056.2
2019-05-05T03:48:07.484Z,95057.7
2019-05-05T03:49:09.632Z,95058.2
2019-05-05T03:50:15.368Z,95059.9
2019-05-05T03:52:24.880Z,95055
2019-05-05T03:53:27.028Z,95055.2
2019-05-05T03:54:29.448Z,95054.5
2019-05-05T03:55:31.590Z,95055.7
2019-05-05T03:57:38.718Z,95055.1
2019-05-05T03:58:40.858Z,95058.7
2019-05-05T04:00:48.002Z,95058.7
2019-05-05T04:01:51.584Z,95059.7
2019-05-05T04:02:55.340Z,95059.1
2019-05-05T04:03:57.768Z,95053.9
2019-05-05T04:04:59.899Z,95056.4
2019-05-05T04:06:04.223Z,95053.4
2019-05-05T04:07:06.499Z,95055.1
2019-05-05T04:08:08.663Z,95056.5
2019-05-05T04:09:11.084Z,95058.1
2019-05-05T04:10:15.672Z,95057.4
2019-05-05T04:11:18.094Z,95063.7
2019-05-05T04:12:20.240Z,95064.5
2019-05-05T04:13:23.702Z,95066.4
2019-05-05T04:14:26.673Z,95071
2019-05-05T04:15:29.098Z,95069.5
2019-05-05T04:16:31.526Z,95066.5
2019-05-05T04:17:36.942Z,95063
2019-05-05T04:18:39.374Z,95064.9
2019-05-05T04:19:44.064Z,95065.3
2019-05-05T04:20:46.479Z,95069.7
2019-05-05T04:21:48.636Z,95065.6
2019-05-05T04:22:50.990Z,95068.9
2019-05-05T04:23:54.932Z,95070.5
2019-05-05T04:24:57.531Z,95073.3
2019-05-05T04:25:59.948Z,95074.2
2019-05-05T04:27:04.450Z,95071.3
2019-05-05T04:28:07.346Z,95075.9
2019-05-05T04:29:09.504Z,95080.3
2019-05-05T04:30:14.036Z,95081.4
2019-05-05T04:31:16.629Z,95079.7
2019-05-05T04:32:19.220Z,95081.1
2019-05-05T04:33:23.446Z,95087.1
2019-05-05T04:34:26.052Z,95085.3
2019-05-05T04:35:29.224Z,95083.9
2019-05-05T04:36:31.640Z,95082.7
2019-05-05T04:37:36.014Z,95083.7
2019-05-05T04:38:38.435Z,95088.6
2019-05-05T04:39:40.862Z,95095.2
2019-05-05T04:40:44.926Z,95098.6
2019-05-05T04:41:47.002Z,95098.3
2019-05-05T04:42:49.164Z,95101.9
2019-05-05T04:43:51.796Z,95104.2
2019-05-05T04:44:58.424Z,95104.6
2019-05-05T04:46:01.056Z,95107.7
2019-05-05T04:47:05.843Z,95106.9
2019-05-05T04:48:07.466Z,95107.1
2019-05-05T04:49:10.480Z,95108.2
2019-05-05T04:51:18.846Z,95109.7
2019-05-05T04:52:21.266Z,95114.7
2019-05-05T04:53:25.664Z,95117.6
2019-05-05T04:54:27.528Z,95118.5
2019-05-05T04:55:29.684Z,95120.7
2019-05-05T04:56:34.079Z,95119.5
2019-05-05T04:57:36.962Z,95123.1
2019-05-05T04:58:39.376Z,95123.7
2019-05-05T04:59:41.806Z,95126.1
2019-05-05T05:00:46.374Z,95123.9
2019-05-05T05:01:48.538Z,95127.1
2019-05-05T05:02:50.874Z,95123.2
2019-05-05T05:03:55.240Z,95124
2019-05-05T05:04:57.656Z,95123.4
2019-05-05T05:06:00.089Z,95126.2
2019-05-05T05:07:04.401Z,95123.8
2019-05-05T05:08:07.007Z,95125.9
2019-05-05T05:09:09.623Z,95130.8
2019-05-05T05:10:13.306Z,95136.8
2019-05-05T05:11:17.645Z,95133.6
2019-05-05T05:12:20.080Z,95126.6
2019-05-05T05:13:24.242Z,95132.5
2019-05-05T05:14:26.640Z,95134.6
2019-05-05T05:15:29.058Z,95132.2
2019-05-05T05:16:31.794Z,95138.5
2019-05-05T05:17:35.035Z,95136
2019-05-05T05:18:37.195Z,95138.1
2019-05-05T05:19:39.643Z,95136.4
2019-05-05T05:20:41.509Z,95133.5
2019-05-05T05:22:50.607Z,95134
2019-05-05T05:23:55.682Z,95135.2
2019-05-05T05:24:58.081Z,95135
2019-05-05T05:26:00.577Z,95127.4
2019-05-05T05:27:05.454Z,95130.3
2019-05-05T05:28:07.889Z,95128.7
2019-05-05T05:29:10.314Z,95130.3
2019-05-05T05:31:17.710Z,95133.5
2019-05-05T05:32:19.875Z,95125.7
2019-05-05T05:33:24.296Z,95124.8
2019-05-05T05:34:26.716Z,95125.8
2019-05-05T05:35:28.854Z,95119.9
2019-05-05T05:36:30.990Z,95129.4
2019-05-05T05:37:35.622Z,95130.3
2019-05-05T05:38:38.250Z,95130.3
2019-05-05T05:39:40.667Z,95133.5
2019-05-05T05:40:44.905Z,95138.3
2019-05-05T05:41:47.915Z,95141.9
2019-05-05T05:42:50.340Z,95144.4
2019-05-05T05:43:54.628Z,95151.7
2019-05-05T05:44:57.424Z,95152.2
2019-05-05T05:45:59.844Z,95153.3
2019-05-05T05:47:04.552Z,95151.5
2019-05-05T05:48:06.577Z,95154.2
2019-05-05T05:49:08.723Z,95157.4
2019-05-05T05:50:11.162Z,95162.6
2019-05-05T05:51:19.067Z,95161.8
2019-05-05T05:52:25.254Z,95161.9
2019-05-05T05:53:27.416Z,95164.2
2019-05-05T05:54:29.308Z,95167.3
2019-05-05T05:55:31.461Z,95165.6
2019-05-05T05:56:38.633Z,95163.2
2019-05-05T05:57:41.050Z,95157.5
2019-05-05T05:58:45.758Z,95160.8
2019-05-05T05:59:48.184Z,95161.8
2019-05-05T06:00:51.228Z,95166.2
2019-05-05T06:02:58.508Z,95166.2
2019-05-05T06:04:00.646Z,95172.2
2019-05-05T06:05:04.810Z,95172.7
2019-05-05T06:06:07.229Z,95173.2
2019-05-05T06:07:09.832Z,95179.4
2019-05-05T06:09:18.194Z,95187
2019-05-05T06:11:25.372Z,95188
2019-05-05T06:12:27.708Z,95189.3
2019-05-05T06:13:29.861Z,95189.2
2019-05-05T06:14:34.480Z,95190.8
2019-05-05T06:15:36.901Z,95190.3
2019-05-05T06:16:39.324Z,95191.8
2019-05-05T06:17:43.366Z,95198.2
2019-05-05T06:18:45.982Z,95194.3
2019-05-05T06:19:49.054Z,95199.9
2019-05-05T06:20:53.352Z,95204
2019-05-05T06:21:55.892Z,95202
2019-05-05T06:22:58.133Z,95201.1
2019-05-05T06:24:00.593Z,95199.8
2019-05-05T06:26:08.968Z,95205.8
2019-05-05T06:27:14.088Z,95210.1
2019-05-05T06:28:16.413Z,95210.6
2019-05-05T06:29:19.160Z,95210.5
2019-05-05T06:30:24.195Z,95209.2
2019-05-05T06:31:26.745Z,95213.7
2019-05-05T06:32:30.108Z,95219.6
2019-05-05T06:34:38.683Z,95215.8
2019-05-05T06:35:41.144Z,95222.3
2019-05-05T06:36:45.500Z,95219.5
2019-05-05T06:37:48.332Z,95222.1
2019-05-05T06:38:50.314Z,95222.1
2019-05-05T06:39:54.878Z,95222.8
2019-05-05T06:40:57.316Z,95219.6
2019-05-05T06:42:00.299Z,95217
2019-05-05T06:43:04.388Z,95215.2
2019-05-05T06:44:07.687Z,95215.4
2019-05-05T06:45:09.847Z,95217
2019-05-05T06:46:14.430Z,95220.2
2019-05-05T06:47:18.694Z,95224.1
2019-05-05T06:48:20.565Z,95221.9
2019-05-05T06:49:25.308Z,95224.5
2019-05-05T06:50:27.432Z,95229.3
2019-05-05T06:51:29.595Z,95230.2
2019-05-05T06:53:36.720Z,95230
2019-05-05T06:54:39.131Z,95230.9
2019-05-05T06:55:41.556Z,95230.9
2019-05-05T06:56:48.180Z,95231.8
2019-05-05T06:57:50.335Z,95231.4
2019-05-05T06:58:54.974Z,95233
2019-05-05T06:59:57.410Z,95236.4
2019-05-05T07:00:59.834Z,95238.4
2019-05-05T07:02:03.956Z,95237.7
2019-05-05T07:04:11.583Z,95244.5
2019-05-05T07:05:15.913Z,95244.2
2019-05-05T07:06:18.494Z,95247.8
2019-05-05T07:07:20.651Z,95248.3
2019-05-05T07:08:25.365Z,95248.2
2019-05-05T07:09:27.609Z,95252.3
2019-05-05T07:10:29.481Z,95256.3
2019-05-05T07:11:31.895Z,95252.1
2019-05-05T07:12:36.274Z,95258.8
2019-05-05T07:13:37.888Z,95255.7
2019-05-05T07:14:40.920Z,95256
2019-05-05T07:16:47.770Z,95262.7
2019-05-05T07:17:49.930Z,95262.8
2019-05-05T07:19:58.246Z,95260.6
2019-05-05T07:21:00.396Z,95260.6
2019-05-05T07:22:05.020Z,95263.5
2019-05-05T07:23:07.440Z,95259.3
2019-05-05T07:24:10.797Z,95266
2019-05-05T07:25:15.170Z,95267.4
2019-05-05T07:26:17.303Z,95269.1
2019-05-05T07:27:19.730Z,95267.4
2019-05-05T07:29:28.210Z,95269.1
2019-05-05T07:30:30.632Z,95270.3
2019-05-05T07:31:34.923Z,95279.7
2019-05-05T07:32:36.793Z,95273.6
2019-05-05T07:33:38.952Z,95279.3
2019-05-05T07:34:41.364Z,95275.1
2019-05-05T07:36:50.526Z,95276.7
2019-05-05T07:38:57.932Z,95275.4
2019-05-05T07:40:00.472Z,95281.9
2019-05-05T07:41:05.112Z,95282.1
2019-05-05T07:42:07.531Z,95279.6
2019-05-05T07:43:09.704Z,95274.3
2019-05-05T07:46:23.900Z,95278.7
2019-05-05T07:47:26.540Z,95280.3
2019-05-05T07:48:29.250Z,95282.7
2019-05-05T07:49:33.397Z,95281.3
2019-05-05T07:50:37.790Z,95283.2
2019-05-05T07:51:40.409Z,95284.7
2019-05-05T07:52:44.822Z,95283.4
2019-05-05T07:53:47.244Z,95282.3
2019-05-05T07:54:49.598Z,95282.8
2019-05-05T07:55:51.784Z,95284.5
2019-05-05T07:56:56.192Z,95285.4
2019-05-05T07:57:58.620Z,95286.7
2019-05-05T07:59:00.757Z,95285.7
2019-05-05T08:00:07.377Z,95282.1
2019-05-05T08:01:10.363Z,95284.5
2019-05-05T08:02:15.056Z,95282.3
2019-05-05T08:03:17.680Z,95285.2
2019-05-05T08:04:19.832Z,95285.8
2019-05-05T08:05:21.418Z,95282.4
2019-05-05T08:06:25.210Z,95286.2
2019-05-05T08:07:27.260Z,95288.5
2019-05-05T08:08:29.402Z,95287.3
2019-05-05T08:09:33.662Z,95288.5
2019-05-05T08:10:38.166Z,95287.8
2019-05-05T08:11:40.309Z,95288.6
2019-05-05T08:12:44.772Z,95284.4
2019-05-05T08:13:46.914Z,95289
2019-05-05T08:14:49.341Z,95288.6
2019-05-05T08:16:56.475Z,95288.7
2019-05-05T08:17:59.107Z,95288.5
2019-05-05T08:19:01.440Z,95284.5
2019-05-05T08:20:05.567Z,95291.4
2019-05-05T08:21:07.484Z,95291.9
2019-05-05T08:22:09.952Z,95292
2019-05-05T08:24:17.538Z,95291.4
2019-05-05T08:26:25.161Z,95295
2019-05-05T08:27:27.584Z,95291.6
2019-05-05T08:28:30.014Z,95293.8
2019-05-05T08:29:34.311Z,95291.2
2019-05-05T08:30:36.678Z,95290.3
2019-05-05T08:31:39.094Z,95290.6
2019-05-05T08:32:43.227Z,95294
2019-05-05T08:33:47.794Z,95291.6
2019-05-05T08:35:56.251Z,95287.2
2019-05-05T08:38:05.932Z,95285.4
2019-05-05T08:39:08.317Z,95286
2019-05-05T08:40:10.902Z,95286.6
2019-05-05T08:41:15.558Z,95290.3
2019-05-05T08:42:17.694Z,95282.6
2019-05-05T08:43:20.044Z,95283.9
2019-05-05T08:44:24.566Z,95289.4
2019-05-05T08:45:28.235Z,95286.8
2019-05-05T08:46:30.392Z,95284.1
2019-05-05T08:47:35.055Z,95282.8
2019-05-05T08:48:37.480Z,95285.3
2019-05-05T08:49:39.848Z,95285.9
2019-05-05T08:50:44.488Z,95284.6
2019-05-05T08:51:46.356Z,95287.2
2019-05-05T08:52:48.954Z,95287.1
2019-05-05T08:53:51.084Z,95287.8
2019-05-05T08:54:55.413Z,95287.7
2019-05-05T08:55:57.569Z,95289.3
2019-05-05T08:56:59.955Z,95285.8
2019-05-05T08:58:04.283Z,95289.4
2019-05-05T08:59:08.557Z,95293.4
2019-05-05T09:00:10.982Z,95289.4
2019-05-05T09:01:17.884Z,95286.5
2019-05-05T09:02:20.042Z,95290.1
2019-05-05T09:03:24.213Z,95287
2019-05-05T09:04:26.204Z,95281.9
2019-05-05T09:05:28.349Z,95284.4
2019-05-05T09:06:30.778Z,95281
2019-05-05T09:07:35.109Z,95282.8
2019-05-05T09:08:36.991Z,95283.7
2019-05-05T09:09:39.415Z,95283.6
2019-05-05T09:10:41.294Z,95282.6
2019-05-05T09:11:45.312Z,95283.2
2019-05-05T09:12:47.736Z,95285
2019-05-05T09:13:50.159Z,95289.3
2019-05-05T09:14:55.467Z,95290.9
2019-05-05T09:15:58.498Z,95283.3
2019-05-05T09:17:01.497Z,95281.5
2019-05-05T09:18:08.402Z,95289.8
2019-05-05T09:19:12.035Z,95287.5
2019-05-05T09:20:16.554Z,95288.6
2019-05-05T09:21:18.423Z,95281.2
2019-05-05T09:22:20.572Z,95282.9
2019-05-05T09:23:25.395Z,95280.3
2019-05-05T09:24:28.188Z,95283
2019-05-05T09:25:30.340Z,95284.6
2019-05-05T09:26:34.892Z,95287
2019-05-05T09:27:37.500Z,95283.6
2019-05-05T09:28:39.836Z,95280.3
2019-05-05T09:29:44.418Z,95280.5
2019-05-05T09:30:46.544Z,95282.1
2019-05-05T09:31:48.414Z,95278.8
2019-05-05T09:32:50.853Z,95281.2
2019-05-05T09:33:55.134Z,95283.3
2019-05-05T09:34:58.190Z,95280.8
2019-05-05T09:36:00.823Z,95287
2019-05-05T09:37:05.173Z,95279.3
2019-05-05T09:38:07.327Z,95280
2019-05-05T09:39:10.351Z,95276.1
2019-05-05T09:40:14.872Z,95282.4
2019-05-05T09:41:18.582Z,95283.2
2019-05-05T09:42:21.052Z,95283
2019-05-05T09:43:25.664Z,95282.3
2019-05-05T09:44:28.100Z,95283.2
2019-05-05T09:45:30.234Z,95283.5
2019-05-05T09:46:34.568Z,95279.3
2019-05-05T09:47:36.736Z,95280.2
2019-05-05T09:48:39.175Z,95284.9
2019-05-05T09:49:41.606Z,95288.4
2019-05-05T09:50:47.958Z,95285.3
2019-05-05T09:51:50.096Z,95285.2
2019-05-05T09:52:54.567Z,95285.5
2019-05-05T09:55:05.070Z,95296.8
2019-05-05T09:56:07.435Z,95291.2
2019-05-05T09:57:09.614Z,95288.9
2019-05-05T09:58:14.218Z,95289.9
2019-05-05T09:59:16.354Z,95288.5
2019-05-05T10:00:18.224Z,95285.2
2019-05-05T10:01:20.662Z,95290.6
2019-05-05T10:02:25.574Z,95288.5
2019-05-05T10:03:28.584Z,95289.1
2019-05-05T10:04:30.816Z,95291
2019-05-05T10:05:35.155Z,95293.3
2019-05-05T10:06:38.978Z,95289.3
2019-05-05T10:07:41.563Z,95288.9
2019-05-05T10:08:46.214Z,95295.6
2019-05-05T10:09:48.343Z,95298
2019-05-05T10:10:51.135Z,95300.5
2019-05-05T10:11:55.506Z,95294.5
2019-05-05T10:12:57.936Z,95294.6
2019-05-05T10:14:00.365Z,95294.9
2019-05-05T10:16:08.869Z,95297.5
2019-05-05T10:17:11.021Z,95296.8
2019-05-05T10:18:17.914Z,95297.7
2019-05-05T10:19:20.335Z,95295.9
2019-05-05T10:20:25.693Z,95298.3
2019-05-05T10:21:28.102Z,95295.7
2019-05-05T10:22:30.532Z,95293
2019-05-05T10:23:35.359Z,95294.4
2019-05-05T10:24:37.519Z,95293.6
2019-05-05T10:25:39.954Z,95299.7
2019-05-05T10:27:49.281Z,95299.1
2019-05-05T10:28:53.525Z,95298.3
2019-05-05T10:29:57.089Z,95295.8
2019-05-05T10:30:59.832Z,95296.6
2019-05-05T10:32:05.082Z,95299.3
2019-05-05T10:33:08.104Z,95297.4
2019-05-05T10:34:10.244Z,95297.1
2019-05-05T10:35:14.733Z,95290.7
2019-05-05T10:36:17.364Z,95294.5
2019-05-05T10:37:19.512Z,95289.4
2019-05-05T10:38:24.494Z,95295
2019-05-05T10:39:26.934Z,95292.2
2019-05-05T10:40:29.091Z,95295.4
2019-05-05T10:41:31.231Z,95293.3
2019-05-05T10:42:35.711Z,95295
2019-05-05T10:43:38.135Z,95296.4
2019-05-05T10:44:40.558Z,95290.5
2019-05-05T10:45:45.021Z,95290.7
2019-05-05T10:46:48.153Z,95288.8
2019-05-05T10:47:50.759Z,95290.2
2019-05-05T10:48:54.733Z,95285.4
2019-05-05T10:49:59.185Z,95289.4
2019-05-05T10:52:07.965Z,95290.5
2019-05-05T10:53:11.135Z,95287.5
2019-05-05T10:54:15.507Z,95291.5
2019-05-05T10:55:17.957Z,95288.4
2019-05-05T10:56:20.121Z,95289.4
2019-05-05T10:57:24.596Z,95285.7
2019-05-05T10:58:26.774Z,95284
2019-05-05T10:59:28.933Z,95280.1
2019-05-05T11:00:31.115Z,95289
2019-05-05T11:01:35.162Z,95286.5
2019-05-05T11:02:37.600Z,95284.7
2019-05-05T11:03:40.037Z,95287
2019-05-05T11:04:44.695Z,95287.8
2019-05-05T11:05:47.126Z,95292
2019-05-05T11:06:49.563Z,95294.5
2019-05-05T11:07:53.582Z,95291.8
2019-05-05T11:08:56.163Z,95292.6
2019-05-05T11:09:58.323Z,95290.6
2019-05-05T11:11:01.644Z,95290.7
2019-05-05T11:12:06.190Z,95295.2
2019-05-05T11:13:08.822Z,95292.8
2019-05-05T11:14:11.283Z,95295.1
2019-05-05T11:15:17.650Z,95295.5
2019-05-05T11:16:19.776Z,95293.1
2019-05-05T11:18:27.672Z,95301.2
2019-05-05T11:19:29.574Z,95300.5
2019-05-05T11:20:33.779Z,95300.2
2019-05-05T11:21:36.357Z,95303
2019-05-05T11:22:39.477Z,95308.6
2019-05-05T11:23:41.899Z,95303.9
2019-05-05T11:25:48.739Z,95305.3
2019-05-05T11:26:51.363Z,95306.9
2019-05-05T11:27:58.004Z,95312.3
2019-05-05T11:29:00.621Z,95310.4
2019-05-05T11:31:07.471Z,95315.3
2019-05-05T11:32:10.111Z,95317.8
2019-05-05T11:33:14.733Z,95318.3
2019-05-05T11:34:17.164Z,95320.3
2019-05-05T11:35:19.794Z,95323.7
2019-05-05T11:36:23.802Z,95326.3
2019-05-05T11:37:27.006Z,95323
2019-05-05T11:38:29.512Z,95324.3
2019-05-05T11:39:33.990Z,95326.5
2019-05-05T11:40:36.538Z,95334
2019-05-05T11:41:38.683Z,95332.8
2019-05-05T11:42:40.614Z,95327.9
2019-05-05T11:43:43.104Z,95327.1
2019-05-05T11:45:51.191Z,95330
2019-05-05T11:49:18.743Z,95331.8
2019-05-05T11:51:27.181Z,95337
2019-05-05T11:52:29.978Z,95335.3
2019-05-05T11:54:01.734Z,95333.3
2019-05-05T11:57:18.389Z,95334.9
2019-05-05T11:58:20.819Z,95332.6
2019-05-05T11:59:25.351Z,95334.1
2019-05-05T12:00:27.489Z,95333.4
2019-05-05T12:01:29.936Z,95334
2019-05-05T12:02:34.452Z,95326.1
2019-05-05T12:04:41.578Z,95326.3
2019-05-05T12:05:45.781Z,95331.6
2019-05-05T12:06:48.213Z,95329.6
2019-05-05T12:07:50.675Z,95332.1
2019-05-05T12:08:52.576Z,95334.8
2019-05-05T12:09:56.413Z,95336.7
2019-05-05T12:10:58.641Z,95332.9
2019-05-05T12:12:00.996Z,95335.6
2019-05-05T12:13:06.024Z,95334.2
2019-05-05T12:14:08.183Z,95332
2019-05-05T12:15:10.038Z,95338
2019-05-05T12:16:14.367Z,95336.5
2019-05-05T12:17:16.785Z,95336.9
2019-05-05T12:18:19.216Z,95338.2
2019-05-05T12:19:24.098Z,95342.7
2019-05-05T12:20:26.693Z,95345.7
2019-05-05T12:21:28.861Z,95340.3
2019-05-05T12:22:31.283Z,95342.7
2019-05-05T12:23:35.770Z,95344.4
2019-05-05T12:24:38.392Z,95339.2
2019-05-05T12:25:40.822Z,95342
2019-05-05T12:26:47.446Z,95336.1
2019-05-05T12:27:49.598Z,95343.1
2019-05-05T12:28:51.199Z,95338.7
2019-05-05T12:29:58.264Z,95333.8
2019-05-05T12:31:00.711Z,95340.9
2019-05-05T12:32:03.645Z,95338.8
2019-05-05T12:33:06.352Z,95337.8
2019-05-05T12:34:08.209Z,95340.8
2019-05-05T12:35:11.348Z,95339.8
2019-05-05T12:36:16.495Z,95334.7
2019-05-05T12:37:18.343Z,95338.5
2019-05-05T12:38:20.508Z,95337.3
2019-05-05T12:39:22.948Z,95335.3
2019-05-05T12:40:26.103Z,95345.1
2019-05-05T12:41:28.258Z,95335.4
2019-05-05T12:42:30.687Z,95334.2
2019-05-05T12:44:37.814Z,95328.7
2019-05-05T12:45:39.963Z,95332.6
2019-05-05T12:46:44.661Z,95331.2
2019-05-05T12:47:47.254Z,95325.3
2019-05-05T12:48:49.677Z,95323.5
2019-05-05T12:49:54.332Z,95323
2019-05-05T12:50:58.448Z,95327.8
2019-05-05T12:52:01.210Z,95323.7
2019-05-05T12:53:05.014Z,95324.3
2019-05-05T12:54:07.247Z,95323
2019-05-05T12:55:09.847Z,95319.9
2019-05-05T12:56:14.397Z,95318.9
2019-05-05T12:57:17.155Z,95320.7
2019-05-05T12:58:20.155Z,95320
2019-05-05T12:59:24.650Z,95321.3
2019-05-05T13:00:27.145Z,95323.7
2019-05-05T13:01:29.573Z,95320.2
2019-05-05T13:02:32.002Z,95322.1
2019-05-05T13:03:36.758Z,95317
2019-05-05T13:04:39.163Z,95317.8
2019-05-05T13:05:41.598Z,95315.3
2019-05-05T13:07:49.037Z,95316.6
2019-05-05T13:08:51.483Z,95319.4
2019-05-05T13:09:55.960Z,95317
2019-05-05T13:10:58.406Z,95315.8
2019-05-05T13:12:00.837Z,95311.7
2019-05-05T13:13:05.008Z,95317.6
2019-05-05T13:14:07.166Z,95317.9
2019-05-05T13:15:09.658Z,95312.9
2019-05-05T13:17:17.464Z,95313.2
2019-05-05T13:18:19.322Z,95313.3
2019-05-05T13:19:24.031Z,95318.6
2019-05-05T13:20:28.806Z,95318.3
2019-05-05T13:21:31.235Z,95311.7
2019-05-05T13:22:34.731Z,95312.5
2019-05-05T13:23:37.155Z,95315.8
2019-05-05T13:24:39.583Z,95315.3
2019-05-05T13:26:46.984Z,95316.6
2019-05-05T13:27:49.479Z,95318.1
2019-05-05T13:28:51.381Z,95317.8
2019-05-05T13:29:55.166Z,95319.1
2019-05-05T13:30:57.332Z,95321.8
2019-05-05T13:31:59.953Z,95317.1
2019-05-05T13:33:04.365Z,95317.9
2019-05-05T13:34:06.790Z,95316.1
2019-05-05T13:35:09.212Z,95320.6
2019-05-05T13:36:13.549Z,95316.3
2019-05-05T13:37:17.527Z,95315.5
2019-05-05T13:38:19.664Z,95317.1
2019-05-05T13:39:22.126Z,95314.8
2019-05-05T13:40:27.004Z,95318
2019-05-05T13:41:28.903Z,95316.6
2019-05-05T13:42:31.054Z,95317.9
2019-05-05T13:43:35.671Z,95319.1
2019-05-05T13:44:38.270Z,95317.9
2019-05-05T13:45:40.435Z,95321.7
2019-05-05T13:47:48.076Z,95324.5